createdAt,value
2023-04-07T00:01:33.075Z,77.42
2023-04-07T00:04:01.317Z,77.31
2023-04-07T00:06:29.450Z,79.06
2023-04-07T00:08:57.352Z,75.97
2023-04-07T00:11:25.652Z,77.62
2023-04-07T00:13:55.277Z,73.89
2023-04-07T00:16:23.659Z,77.28
2023-04-07T00:18:51.602Z,76.80
2023-04-07T00:21:19.592Z,78.48
2023-04-07T00:23:47.840Z,79.48
2023-04-07T00:26:15.770Z,80.11
2023-04-07T00:28:43.769Z,79.22
2023-04-07T00:31:13.090Z,78.93
2023-04-07T00:33:41.066Z,76.01
2023-04-07T00:36:09.320Z,78.59
2023-04-07T00:38:37.308Z,80.83
2023-04-07T00:41:05.911Z,80.48
2023-04-07T00:43:33.873Z,76.91
2023-04-07T00:46:02.578Z,78.52
2023-04-07T00:48:32.151Z,79.76
2023-04-07T00:51:00.140Z,80.06
2023-04-07T00:53:28.197Z,81.42
2023-04-07T00:55:56.363Z,80.38
2023-04-07T00:58:24.268Z,83.80
2023-04-07T01:00:59.323Z,83.87
2023-04-07T01:03:35.009Z,82.75
2023-04-07T01:06:04.185Z,83.67
2023-04-07T01:08:39.735Z,81.17
2023-04-07T01:11:14.826Z,82.09
2023-04-07T01:13:47.646Z,83.89
2023-04-07T01:16:21.064Z,83.13
2023-04-07T01:18:55.545Z,82.84
2023-04-07T01:21:24.094Z,84.01
2023-04-07T01:24:06.828Z,82.00
2023-04-07T01:26:35.367Z,84.96
2023-04-07T01:29:12.899Z,80.91
2023-04-07T01:31:43.195Z,85.23
2023-04-07T01:34:12.184Z,86.73
2023-04-07T01:36:41.135Z,87.03
2023-04-07T01:39:10.696Z,86.95
2023-04-07T01:41:39.503Z,88.60
2023-04-07T01:44:09.227Z,86.20
2023-04-07T01:46:37.137Z,86.66
2023-04-07T01:49:07.741Z,87.76
2023-04-07T01:51:36.017Z,87.01
2023-04-07T01:54:05.801Z,86.11
2023-04-07T01:56:33.728Z,86.52
2023-04-07T01:59:01.644Z,87.97
2023-04-07T02:01:31.009Z,86.91
2023-04-07T02:04:07.800Z,87.66
2023-04-07T02:06:43.385Z,85.60
2023-04-07T02:09:14.479Z,85.92
2023-04-07T02:11:45.064Z,88.14
2023-04-07T02:14:14.659Z,88.48
2023-04-07T02:16:45.210Z,87.42
2023-04-07T02:19:14.845Z,89.02
2023-04-07T02:21:46.799Z,88.58
2023-04-07T02:24:14.734Z,88.80
2023-04-07T02:26:44.193Z,88.11
2023-04-07T02:29:12.100Z,87.57
2023-04-07T02:31:40.143Z,86.36
2023-04-07T02:34:08.070Z,87.33
2023-04-07T02:36:35.964Z,88.14
2023-04-07T02:39:05.574Z,86.64
2023-04-07T02:41:33.519Z,87.42
2023-04-07T02:44:01.436Z,86.51
2023-04-07T02:46:29.360Z,84.16
2023-04-07T02:48:57.317Z,87.53
2023-04-07T02:51:25.236Z,87.10
2023-04-07T02:53:53.347Z,87.54
2023-04-07T02:56:22.706Z,87.86
2023-04-07T02:58:50.689Z,88.95
2023-04-07T03:01:18.658Z,88.65
2023-04-07T03:03:47.925Z,87.86
2023-04-07T03:06:16.060Z,88.58
2023-04-07T03:08:44.160Z,86.03
2023-04-07T03:11:12.395Z,88.34
2023-04-07T03:13:41.936Z,87.05
2023-04-07T03:16:09.895Z,86.90
2023-04-07T03:18:37.806Z,85.91
2023-04-07T03:21:05.737Z,86.03
2023-04-07T03:23:33.644Z,83.94
2023-04-07T03:26:01.605Z,86.34
2023-04-07T03:28:29.494Z,88.86
2023-04-07T03:30:59.003Z,89.84
2023-04-07T03:33:26.922Z,89.15
2023-04-07T03:35:54.912Z,91.24
2023-04-07T03:38:22.961Z,92.99
2023-04-07T03:40:50.978Z,90.77
2023-04-07T03:43:18.956Z,90.76
2023-04-07T03:45:47.905Z,89.39
2023-04-07T03:48:17.236Z,90.42
2023-04-07T03:50:45.233Z,91.12
2023-04-07T03:53:14.020Z,90.58
2023-04-07T03:55:42.000Z,92.46
2023-04-07T03:58:10.256Z,92.20
2023-04-07T04:00:38.462Z,92.94
2023-04-07T04:03:06.575Z,93.11
2023-04-07T04:05:35.988Z,93.22
2023-04-07T04:08:03.911Z,94.00
2023-04-07T04:10:31.921Z,93.92
2023-04-07T04:13:00.834Z,96.04
2023-04-07T04:15:28.733Z,92.88
2023-04-07T04:17:56.677Z,94.32
2023-04-07T04:20:24.607Z,94.29
2023-04-07T04:22:53.899Z,95.11
2023-04-07T04:25:22.119Z,95.34
2023-04-07T04:27:50.071Z,96.52
2023-04-07T04:30:18.060Z,99.37
2023-04-07T04:32:46.052Z,98.72
2023-04-07T04:35:14.206Z,99.39
2023-04-07T04:37:42.131Z,97.38
2023-04-07T04:40:12.819Z,100.00
2023-04-07T04:42:41.068Z,96.66
2023-04-07T04:45:10.131Z,94.74
2023-04-07T04:47:39.097Z,94.79
2023-04-07T04:50:07.881Z,94.82
2023-04-07T04:52:35.803Z,93.39
2023-04-07T04:55:03.981Z,91.94
2023-04-07T04:57:34.814Z,91.49
2023-04-07T05:00:03.034Z,88.84
2023-04-07T05:02:31.170Z,88.77
2023-04-07T05:04:59.359Z,88.36
2023-04-07T05:07:27.693Z,87.36
2023-04-07T05:09:55.584Z,86.77
2023-04-07T05:12:23.531Z,83.31
2023-04-07T05:14:52.872Z,82.08
2023-04-07T05:17:20.823Z,80.77
2023-04-07T05:19:48.847Z,79.98
2023-04-07T05:22:16.875Z,77.65
2023-04-07T05:24:44.890Z,76.95
2023-04-07T05:27:12.812Z,75.62
2023-04-07T05:29:40.759Z,76.03
2023-04-07T05:32:10.077Z,76.00
2023-04-07T05:34:38.064Z,73.73
2023-04-07T05:37:05.991Z,73.71
2023-04-07T05:39:33.907Z,72.01
2023-04-07T05:42:02.314Z,69.56
2023-04-07T05:44:30.407Z,69.61
2023-04-07T05:46:58.321Z,70.34
2023-04-07T05:49:27.794Z,69.30
2023-04-07T05:51:56.034Z,69.84
2023-04-07T05:54:24.020Z,69.74
2023-04-07T05:56:51.988Z,69.74
2023-04-07T05:59:19.914Z,69.44
2023-04-07T06:01:47.967Z,63.25
2023-04-07T06:04:16.046Z,61.25
2023-04-07T06:06:45.439Z,57.46
2023-04-07T06:09:13.374Z,54.46
2023-04-07T06:11:41.306Z,60.38
2023-04-07T06:14:09.237Z,54.02
2023-04-07T06:16:37.291Z,55.58
2023-04-07T06:19:05.291Z,55.06
2023-04-07T06:21:33.196Z,53.77
2023-04-07T06:24:02.778Z,53.96
2023-04-07T06:26:30.776Z,51.94
2023-04-07T06:28:59.516Z,52.05
2023-04-07T06:31:28.137Z,52.96
2023-04-07T06:33:56.415Z,54.76
2023-04-07T06:36:24.730Z,51.54
2023-04-07T06:38:52.754Z,51.29
2023-04-07T06:41:22.076Z,53.04
2023-04-07T06:43:51.386Z,50.38
2023-04-07T06:46:19.637Z,51.43
2023-04-07T06:48:47.738Z,50.92
2023-04-07T06:51:15.723Z,51.50
2023-04-07T06:53:44.378Z,51.80
2023-04-07T06:56:13.200Z,51.05
2023-04-07T06:58:42.490Z,52.54
2023-04-07T07:01:10.445Z,50.87
2023-04-07T07:03:38.454Z,52.09
2023-04-07T07:06:06.668Z,52.09
2023-04-07T07:08:34.744Z,51.46
2023-04-07T07:11:02.724Z,51.97
2023-04-07T07:13:30.610Z,53.61
2023-04-07T07:16:01.141Z,52.72
2023-04-07T07:18:31.595Z,51.50
2023-04-07T07:20:59.821Z,53.33
2023-04-07T07:23:27.671Z,49.94
2023-04-07T07:25:55.615Z,50.71
2023-04-07T07:28:23.851Z,51.66
2023-04-07T07:30:51.798Z,49.10
2023-04-07T07:33:22.851Z,49.31
2023-04-07T07:35:50.870Z,52.21
2023-04-07T07:38:18.824Z,52.02
2023-04-07T07:40:47.228Z,51.87
2023-04-07T07:43:15.467Z,50.93
2023-04-07T07:45:43.531Z,49.53
2023-04-07T07:48:12.130Z,53.95
2023-04-07T07:50:42.895Z,51.28
2023-04-07T07:53:11.075Z,50.29
2023-04-07T07:55:39.429Z,48.76
2023-04-07T07:58:07.353Z,50.69
2023-04-07T08:00:35.295Z,50.74
2023-04-07T08:03:03.412Z,52.73
2023-04-07T08:05:31.939Z,49.71
2023-04-07T08:08:01.696Z,49.18
2023-04-07T08:10:29.812Z,50.57
2023-04-07T08:12:57.826Z,52.25
2023-04-07T08:15:26.724Z,51.40
2023-04-07T08:17:56.340Z,50.90
2023-04-07T08:20:24.987Z,49.81
2023-04-07T08:22:53.561Z,47.87
2023-04-07T08:25:22.962Z,51.87
2023-04-07T08:27:50.990Z,49.68
2023-04-07T08:30:21.118Z,50.58
2023-04-07T08:32:49.972Z,51.80
2023-04-07T08:35:18.004Z,51.00
2023-04-07T08:37:46.043Z,50.83
2023-04-07T08:40:14.402Z,47.36
2023-04-07T08:42:48.430Z,47.19
2023-04-07T08:45:19.133Z,47.49
2023-04-07T08:47:49.377Z,51.41
2023-04-07T08:50:19.349Z,48.43
2023-04-07T08:52:55.611Z,44.10
2023-04-07T08:55:23.904Z,45.75
2023-04-07T08:57:54.690Z,45.22
2023-04-07T09:00:22.854Z,45.91
2023-04-07T09:02:52.774Z,47.42
2023-04-07T09:05:22.089Z,50.60
2023-04-07T09:07:50.838Z,47.16
2023-04-07T09:10:18.899Z,45.31
2023-04-07T09:12:47.392Z,46.42
2023-04-07T09:15:17.089Z,46.58
2023-04-07T09:17:45.523Z,48.83
2023-04-07T09:20:13.787Z,46.28
2023-04-07T09:22:43.581Z,46.29
2023-04-07T09:25:16.503Z,44.46
2023-04-07T09:27:59.349Z,45.18
2023-04-07T09:30:29.893Z,43.07
2023-04-07T09:32:59.196Z,44.62
2023-04-07T09:35:28.556Z,47.73
2023-04-07T09:38:04.874Z,43.37
2023-04-07T09:40:33.133Z,42.81
2023-04-07T09:43:01.530Z,43.01
2023-04-07T09:45:35.776Z,44.39
2023-04-07T09:48:09.057Z,43.45
2023-04-07T09:50:41.557Z,42.32
2023-04-07T09:53:09.714Z,46.20
2023-04-07T09:55:38.942Z,45.01
2023-04-07T09:58:07.670Z,45.63
2023-04-07T10:00:37.505Z,45.38
2023-04-07T10:03:06.649Z,43.44
2023-04-07T10:05:36.672Z,46.43
2023-04-07T10:08:05.326Z,46.58
2023-04-07T10:10:34.239Z,45.29
2023-04-07T10:13:05.912Z,48.56
2023-04-07T10:15:34.543Z,48.37
2023-04-07T10:18:08.660Z,45.29
2023-04-07T10:20:40.200Z,43.79
2023-04-07T10:23:17.667Z,44.05
2023-04-07T10:25:48.928Z,44.78
2023-04-07T10:28:19.542Z,43.72
2023-04-07T10:30:50.018Z,45.11
2023-04-07T10:33:20.280Z,43.59
2023-04-07T10:36:06.637Z,45.84
2023-04-07T10:38:34.865Z,44.15
2023-04-07T10:41:36.682Z,42.51
2023-04-07T10:44:05.350Z,42.19
2023-04-07T10:47:07.416Z,40.10
2023-04-07T10:49:38.149Z,42.00
2023-04-07T10:52:25.416Z,44.26
2023-04-07T10:55:31.862Z,44.89
2023-04-07T10:58:20.518Z,46.00
2023-04-07T11:01:31.207Z,45.73
2023-04-07T11:04:02.358Z,44.01
2023-04-07T11:06:32.095Z,45.67
2023-04-07T11:09:00.704Z,47.21
2023-04-07T11:11:43.175Z,45.65
2023-04-07T11:14:11.313Z,47.26
2023-04-07T11:16:41.865Z,48.43
2023-04-07T11:19:10.154Z,48.00
2023-04-07T11:21:39.724Z,46.19
2023-04-07T11:24:08.021Z,43.96
2023-04-07T11:26:41.128Z,41.98
2023-04-07T11:29:10.590Z,42.10
2023-04-07T11:31:40.138Z,43.65
2023-04-07T11:34:09.187Z,45.25
2023-04-07T11:36:42.454Z,45.56
2023-04-07T11:39:20.671Z,42.98
2023-04-07T11:41:50.278Z,42.38
2023-04-07T11:44:18.535Z,41.13
2023-04-07T11:46:56.567Z,41.35
2023-04-07T11:49:26.151Z,41.65
2023-04-07T11:52:02.289Z,40.62
2023-04-07T11:54:41.370Z,42.94
2023-04-07T11:57:12.257Z,40.78
2023-04-07T11:59:41.563Z,37.46
2023-04-07T12:02:10.028Z,40.35
2023-04-07T12:04:41.003Z,43.25
2023-04-07T12:07:11.940Z,39.32
2023-04-07T12:09:40.114Z,42.51
2023-04-07T12:12:10.772Z,41.41
2023-04-07T12:14:39.153Z,40.79
2023-04-07T12:17:08.158Z,38.00
2023-04-07T12:19:36.553Z,39.74
2023-04-07T12:22:04.967Z,38.11
2023-04-07T12:24:34.713Z,42.11
2023-04-07T12:27:03.200Z,40.84
2023-04-07T12:29:31.653Z,38.89
2023-04-07T12:31:59.882Z,42.06
2023-04-07T12:34:28.155Z,43.44
2023-04-07T12:36:56.613Z,43.37
2023-04-07T12:39:24.690Z,44.31
2023-04-07T12:41:54.434Z,45.16
2023-04-07T12:44:22.634Z,43.85
2023-04-07T12:46:50.638Z,42.45
2023-04-07T12:49:18.991Z,43.94
2023-04-07T12:51:47.136Z,43.96
2023-04-07T12:54:15.151Z,43.83
2023-04-07T12:56:43.175Z,46.63
2023-04-07T12:59:13.071Z,46.09
2023-04-07T13:01:41.202Z,47.45
2023-04-07T13:04:09.359Z,49.09
2023-04-07T13:06:37.414Z,48.75
2023-04-07T13:09:05.467Z,50.77
2023-04-07T13:11:33.862Z,49.51
2023-04-07T13:14:02.006Z,49.71
2023-04-07T13:16:32.180Z,46.91
2023-04-07T13:19:00.174Z,50.29
2023-04-07T13:21:45.406Z,50.56
2023-04-07T13:24:15.283Z,51.59
2023-04-07T13:26:43.625Z,52.07
2023-04-07T13:29:11.948Z,52.47
2023-04-07T13:31:41.710Z,51.65
2023-04-07T13:34:09.697Z,51.86
2023-04-07T13:36:37.621Z,50.88
2023-04-07T13:39:05.704Z,50.08
2023-04-07T13:41:33.768Z,50.58
2023-04-07T13:44:02.479Z,49.21
2023-04-07T13:46:30.847Z,50.62
2023-04-07T13:49:00.689Z,52.59
2023-04-07T13:51:29.472Z,53.74
2023-04-07T13:53:57.633Z,54.54
2023-04-07T13:56:25.751Z,54.94
2023-04-07T13:58:54.166Z,54.98
2023-04-07T14:01:22.225Z,55.41
2023-04-07T14:03:50.668Z,55.68
2023-04-07T14:06:22.824Z,56.88
2023-04-07T14:08:51.164Z,54.17
2023-04-07T14:11:19.561Z,55.19
2023-04-07T14:13:48.007Z,54.49
2023-04-07T14:16:16.713Z,54.29
2023-04-07T14:18:44.774Z,53.08
2023-04-07T14:21:12.864Z,53.24
2023-04-07T14:23:42.457Z,52.19
2023-04-07T14:26:11.863Z,51.23
2023-04-07T14:28:40.116Z,52.00
2023-04-07T14:31:08.078Z,53.04
2023-04-07T14:33:36.596Z,54.45
2023-04-07T14:36:04.826Z,55.32
2023-04-07T14:38:35.218Z,54.67
2023-04-07T14:41:09.962Z,52.96
2023-04-07T14:43:39.184Z,53.57
2023-04-07T14:46:07.346Z,54.80
2023-04-07T14:48:35.829Z,54.64
2023-04-07T14:51:09.700Z,55.81
2023-04-07T14:53:37.962Z,54.73
2023-04-07T14:56:08.042Z,54.50
2023-04-07T14:58:37.634Z,56.72
2023-04-07T15:01:06.548Z,55.30
2023-04-07T15:03:34.857Z,55.93
2023-04-07T15:06:03.218Z,56.01
2023-04-07T15:08:33.282Z,55.40
2023-04-07T15:11:01.205Z,57.71
2023-04-07T15:13:30.552Z,57.38
2023-04-07T15:15:58.909Z,57.69
2023-04-07T15:18:27.023Z,57.18
2023-04-07T15:20:55.133Z,57.21
2023-04-07T15:23:22.994Z,57.50
2023-04-07T15:25:56.031Z,57.55
2023-04-07T15:28:24.368Z,58.66
2023-04-07T15:30:53.760Z,56.67
2023-04-07T15:33:21.818Z,58.22
2023-04-07T15:35:49.850Z,58.77
2023-04-07T15:38:18.265Z,56.72
2023-04-07T15:40:46.463Z,58.60
2023-04-07T15:43:14.624Z,59.25
2023-04-07T15:45:43.964Z,60.82
2023-04-07T15:48:14.998Z,61.87
2023-04-07T15:50:43.078Z,60.24
2023-04-07T15:53:11.345Z,61.32
2023-04-07T15:55:40.065Z,61.26
2023-04-07T15:58:08.639Z,60.87
2023-04-07T16:00:37.154Z,61.39
2023-04-07T16:03:06.252Z,62.53
2023-04-07T16:05:35.928Z,61.36
2023-04-07T16:08:03.962Z,62.41
2023-04-07T16:10:32.027Z,61.97
2023-04-07T16:13:00.095Z,62.38
2023-04-07T16:15:39.302Z,62.69
2023-04-07T16:18:10.322Z,61.55
2023-04-07T16:20:39.700Z,61.81
2023-04-07T16:23:07.705Z,64.04
2023-04-07T16:25:36.362Z,63.79
2023-04-07T16:28:04.401Z,63.02
2023-04-07T16:30:32.409Z,62.52
2023-04-07T16:33:01.882Z,65.29
2023-04-07T16:35:31.021Z,63.81
2023-04-07T16:38:04.117Z,63.68
2023-04-07T16:40:32.117Z,63.36
2023-04-07T16:43:00.209Z,64.76
2023-04-07T16:45:28.169Z,63.74
2023-04-07T16:47:56.110Z,67.62
2023-04-07T16:50:24.101Z,64.98
2023-04-07T16:52:52.025Z,63.74
2023-04-07T16:55:21.507Z,61.92
2023-04-07T16:57:50.237Z,63.76
2023-04-07T17:00:19.370Z,63.37
2023-04-07T17:02:47.363Z,61.13
2023-04-07T17:05:17.336Z,62.31
2023-04-07T17:07:45.251Z,61.94
2023-04-07T17:10:14.501Z,64.92
2023-04-07T17:12:43.990Z,66.92
2023-04-07T17:15:12.535Z,64.63
2023-04-07T17:17:40.532Z,65.34
2023-04-07T17:20:09.466Z,66.27
2023-04-07T17:22:37.678Z,66.52
2023-04-07T17:25:06.813Z,66.64
2023-04-07T17:27:34.919Z,66.74
2023-04-07T17:30:05.294Z,64.34
2023-04-07T17:32:33.381Z,66.53
2023-04-07T17:35:01.353Z,67.36
2023-04-07T17:37:29.221Z,66.05
2023-04-07T17:39:57.095Z,67.16
2023-04-07T17:42:25.012Z,67.10
2023-04-07T17:44:53.922Z,66.77
2023-04-07T17:47:23.201Z,67.25
2023-04-07T17:49:51.409Z,67.22
2023-04-07T17:52:19.351Z,67.55
2023-04-07T17:54:47.395Z,66.35
2023-04-07T17:57:15.904Z,66.61
2023-04-07T17:59:43.838Z,67.13
2023-04-07T18:02:11.842Z,69.09
2023-04-07T18:04:41.481Z,67.92
2023-04-07T18:07:09.655Z,68.45
2023-04-07T18:09:37.554Z,69.89
2023-04-07T18:12:06.331Z,71.38
2023-04-07T18:14:34.253Z,70.58
2023-04-07T18:17:02.194Z,70.80
2023-04-07T18:19:31.023Z,71.33
2023-04-07T18:22:01.036Z,70.75
2023-04-07T18:24:29.258Z,71.73
2023-04-07T18:26:57.670Z,71.27
2023-04-07T18:29:25.568Z,71.29
2023-04-07T18:31:53.494Z,69.73
2023-04-07T18:34:21.417Z,72.34
2023-04-07T18:36:49.797Z,72.83
2023-04-07T18:39:19.203Z,72.42
2023-04-07T18:41:48.329Z,72.30
2023-04-07T18:44:16.223Z,73.52
2023-04-07T18:46:44.252Z,75.06
2023-04-07T18:49:12.156Z,75.68
2023-04-07T18:51:40.092Z,77.16
2023-04-07T18:54:07.991Z,76.49
2023-04-07T18:56:37.514Z,76.69
2023-04-07T18:59:07.258Z,77.64
2023-04-07T19:01:35.708Z,77.16
2023-04-07T19:04:03.750Z,77.42
2023-04-07T19:06:32.490Z,76.05
2023-04-07T19:09:00.783Z,76.58
2023-04-07T19:11:31.201Z,77.18
2023-04-07T19:14:01.212Z,77.51
2023-04-07T19:16:32.708Z,78.05
2023-04-07T19:19:01.748Z,79.38
2023-04-07T19:21:31.228Z,81.05
2023-04-07T19:24:02.330Z,81.29
2023-04-07T19:26:30.926Z,80.81
2023-04-07T19:29:00.672Z,80.63
2023-04-07T19:31:29.769Z,81.67
2023-04-07T19:34:05.720Z,82.73
2023-04-07T19:36:33.720Z,82.41
2023-04-07T19:39:03.675Z,81.88
2023-04-07T19:41:35.365Z,80.75
2023-04-07T19:44:08.353Z,80.17
2023-04-07T19:46:36.557Z,79.39
2023-04-07T19:49:04.477Z,79.18
2023-04-07T19:51:33.055Z,79.94
2023-04-07T19:54:01.033Z,81.57
2023-04-07T19:56:28.998Z,81.95
2023-04-07T19:58:56.959Z,82.36
2023-04-07T20:01:26.455Z,81.27
2023-04-07T20:03:54.547Z,81.21
2023-04-07T20:06:24.907Z,80.77
2023-04-07T20:08:52.766Z,81.68
2023-04-07T20:11:21.687Z,82.74
2023-04-07T20:13:49.663Z,82.03
2023-04-07T20:16:17.912Z,83.01
2023-04-07T20:18:48.074Z,83.24
2023-04-07T20:21:16.457Z,83.32
2023-04-07T20:23:44.391Z,82.62
2023-04-07T20:26:12.257Z,82.98
2023-04-07T20:28:40.140Z,82.42
2023-04-07T20:31:08.145Z,82.82
2023-04-07T20:33:36.039Z,83.26
2023-04-07T20:36:05.654Z,83.64
2023-04-07T20:38:33.535Z,83.84
2023-04-07T20:41:01.568Z,83.58
2023-04-07T20:43:29.474Z,85.46
2023-04-07T20:45:58.103Z,85.57
2023-04-07T20:48:26.709Z,85.62
2023-04-07T20:50:54.679Z,85.54
2023-04-07T20:53:23.961Z,86.61
2023-04-07T20:55:51.996Z,87.57
2023-04-07T20:58:20.179Z,86.66
2023-04-07T21:00:48.085Z,87.13
2023-04-07T21:03:16.409Z,86.44
2023-04-07T21:05:45.824Z,86.38
2023-04-07T21:08:14.796Z,87.33
2023-04-07T21:10:44.182Z,88.51
2023-04-07T21:13:12.087Z,87.70
2023-04-07T21:15:42.321Z,88.36
2023-04-07T21:18:10.631Z,87.94
2023-04-07T21:20:38.645Z,87.72
2023-04-07T21:23:07.795Z,87.40
2023-04-07T21:25:37.561Z,88.87
2023-04-07T21:28:07.365Z,91.24
2023-04-07T21:30:35.292Z,89.38
2023-04-07T21:33:03.655Z,89.74
2023-04-07T21:35:31.633Z,88.64
2023-04-07T21:37:59.547Z,86.84
2023-04-07T21:40:27.456Z,87.20
2023-04-07T21:42:55.311Z,88.14
2023-04-07T21:45:24.588Z,88.89
2023-04-07T21:47:52.508Z,88.94
2023-04-07T21:50:20.445Z,90.46
2023-04-07T21:52:50.804Z,90.64
2023-04-07T21:55:19.036Z,90.81
2023-04-07T21:57:47.249Z,94.92
2023-04-07T22:00:16.502Z,94.04
2023-04-07T22:02:46.418Z,92.70
2023-04-07T22:05:14.668Z,91.87
2023-04-07T22:07:42.620Z,91.82
2023-04-07T22:10:11.646Z,91.04
2023-04-07T22:12:39.529Z,92.90
2023-04-07T22:15:08.563Z,92.52
2023-04-07T22:17:36.664Z,91.07
2023-04-07T22:20:07.298Z,91.16
2023-04-07T22:22:35.185Z,89.58
2023-04-07T22:25:03.361Z,91.10
2023-04-07T22:27:31.258Z,91.35
2023-04-07T22:29:59.170Z,91.38
2023-04-07T22:32:27.121Z,90.39
2023-04-07T22:34:55.040Z,91.11
2023-04-07T22:37:24.304Z,92.25
2023-04-07T22:39:52.192Z,92.77
2023-04-07T22:42:20.092Z,92.07
2023-04-07T22:44:47.969Z,91.94
2023-04-07T22:47:15.914Z,91.33
2023-04-07T22:49:43.815Z,92.11
2023-04-07T22:52:11.722Z,91.35
2023-04-07T22:54:41.034Z,92.08
2023-04-07T22:57:09.047Z,91.85
2023-04-07T22:59:37.170Z,91.30
2023-04-07T23:02:05.227Z,91.39
2023-04-07T23:04:33.146Z,92.81
2023-04-07T23:07:01.283Z,95.61
2023-04-07T23:09:29.190Z,95.01
2023-04-07T23:11:58.515Z,98.45
2023-04-07T23:14:26.395Z,97.19
2023-04-07T23:16:56.054Z,95.34
2023-04-07T23:19:24.309Z,93.09
2023-04-07T23:21:52.309Z,91.71
2023-04-07T23:24:20.595Z,90.03
2023-04-07T23:26:48.576Z,90.76
2023-04-07T23:29:17.856Z,90.34
2023-04-07T23:31:45.783Z,92.02
2023-04-07T23:34:13.722Z,92.41
2023-04-07T23:36:42.030Z,91.59
2023-04-07T23:39:09.944Z,91.16
2023-04-07T23:41:38.259Z,88.33
2023-04-07T23:44:07.007Z,87.72
2023-04-07T23:46:36.375Z,88.75
2023-04-07T23:49:04.345Z,87.70
2023-04-07T23:51:32.364Z,87.54
2023-04-07T23:54:00.215Z,87.05
2023-04-07T23:56:28.982Z,85.86
2023-04-07T23:58:57.003Z,85.44
